METAR Data
IDs: Format: Raw Decoded Include TAF

Data at: 0116 UTC 19 Nov 2018

METAR for:PADU (Dutch Harbor/Madsen, AK, US)
Text:PADU 190056Z 29017G22KT 10SM -RA SCT003 BKN016 OVC030 04/01 A2991 RMK AO2 PK WND 32034/0005 SLP133 BLK WTR NE NW P0002 T00440006
Temperature: 4.4°C ( 40°F)
Dewpoint: 0.6°C ( 33°F) [RH = 76%]
Pressure (altimeter):29.91 inches Hg (1013.0 mb) [Sea level pressure: 1013.3 mb]
Winds:from the WNW (290 degrees) at 20 MPH (17 knots; 8.7 m/s) gusting to 25 MPH (22 knots; 11.3 m/s)
Visibility:10 or more sm (16+ km)
Ceiling:1600 feet AGL
Clouds: scattered clouds at 300 feet AGL, broken clouds at 1600 feet AGL, overcast cloud deck at 3000 feet AGL
Weather:-RA (light rain)
Text:PADU 182356Z 30023G27KT 10SM -RA BKN024 BKN030 05/01 A2989 RMK AO2 PK WND 30034/2308 SLP126 OBS WND 29036/15 BLK WTR NE NW P0001 60005 T00500006 10061 20044 51019
Temperature: 5.0°C ( 41°F)
Dewpoint: 0.6°C ( 33°F) [RH = 73%]
Pressure (altimeter):29.89 inches Hg (1012.3 mb) [Sea level pressure: 1012.6 mb]
Winds:from the WNW (300 degrees) at 26 MPH (23 knots; 11.8 m/s) gusting to 31 MPH (27 knots; 13.9 m/s)
Visibility:10 or more sm (16+ km)
Ceiling:2400 feet AGL
Clouds: broken clouds at 2400 feet AGL, broken clouds at 3000 feet AGL
Weather:-RA (light rain)
Text:PADU 182256Z 30023G28KT 8SM -RA BKN024 BKN045 05/01 A2987 RMK AO2 PK WND 29030/2238 SLP121 BLK WTR E P0001 T00500011
Temperature: 5.0°C ( 41°F)
Dewpoint: 1.1°C ( 34°F) [RH = 76%]
Pressure (altimeter):29.87 inches Hg (1011.6 mb) [Sea level pressure: 1012.1 mb]
Winds:from the WNW (300 degrees) at 26 MPH (23 knots; 11.8 m/s) gusting to 32 MPH (28 knots; 14.4 m/s)
Visibility: 8 sm ( 13 km)
Ceiling:2400 feet AGL
Clouds: broken clouds at 2400 feet AGL, broken clouds at 4500 feet AGL
Weather:-RA (light rain)
Text:PADU 182156Z 30019G23KT 8SM -RA BKN024 BKN045 06/00 A2986 RMK AO2 PK WND 32028/2059 RAB27 SLP117 BLK WTR E P0000 T00560000
Temperature: 5.6°C ( 42°F)
Dewpoint: 0.0°C ( 32°F) [RH = 67%]
Pressure (altimeter):29.86 inches Hg (1011.3 mb) [Sea level pressure: 1011.7 mb]
Winds:from the WNW (300 degrees) at 22 MPH (19 knots; 9.8 m/s) gusting to 26 MPH (23 knots; 11.8 m/s)
Visibility: 8 sm ( 13 km)
Ceiling:2400 feet AGL
Clouds: broken clouds at 2400 feet AGL, broken clouds at 4500 feet AGL
Weather:-RA (light rain)
Text:PADU 182056Z 30021G32KT 9SM BKN025 BKN035 06/M01 A2984 RMK AO2 PK WND 31038/2045 RAE48 SLP108 BLK WTR E P0001 60003 T00561011 51038
Temperature: 5.6°C ( 42°F)
Dewpoint: -1.1°C ( 30°F) [RH = 62%]
Pressure (altimeter):29.84 inches Hg (1010.6 mb) [Sea level pressure: 1010.8 mb]
Winds:from the WNW (300 degrees) at 24 MPH (21 knots; 10.8 m/s) gusting to 37 MPH (32 knots; 16.5 m/s)
Visibility: 9 sm ( 14 km)
Ceiling:2500 feet AGL
Clouds: broken clouds at 2500 feet AGL, broken clouds at 3500 feet AGL
Text:PADU 181956Z 30020G26KT 10SM -RA BKN025 BKN035 06/01 A2980 RMK AO2 PK WND 31038/1927 RAE15B42 SLP096 BLK WTR E P0000 T00560011
Temperature: 5.6°C ( 42°F)
Dewpoint: 1.1°C ( 34°F) [RH = 73%]
Pressure (altimeter):29.80 inches Hg (1009.2 mb) [Sea level pressure: 1009.6 mb]
Winds:from the WNW (300 degrees) at 23 MPH (20 knots; 10.3 m/s) gusting to 30 MPH (26 knots; 13.4 m/s)
Visibility:10 or more sm (16+ km)
Ceiling:2500 feet AGL
Clouds: broken clouds at 2500 feet AGL, broken clouds at 3500 feet AGL
Weather:-RA (light rain)

TAF for:PADU (Dutch Harbor/Madsen, AK, US) issued at 2335 UTC 18 Nov 2018
Text:PADU 182335Z 1900/1924 30023G28KT P6SM -RA VCSH BKN025 BKN045
Forecast period:0000 to 1200 UTC 19 November 2018
Forecast type:FROM: standard forecast or significant change
Winds:from the WNW (300 degrees) at 26 MPH (23 knots; 11.8 m/s) gusting to 32 MPH (28 knots; 14.4 m/s)
Visibility:6 or more sm (10+ km)
Ceiling:2500 feet AGL
Clouds: broken clouds at 2500 feet AGL, broken clouds at 4500 feet AGL
Weather:-RA VCSH (light rain, showers in vicinity)
Text:FM191200 25015G22KT 6SM -SHRA BR OVC007
Forecast period:1200 to 1800 UTC 19 November 2018
Forecast type:FROM: standard forecast or significant change
Winds:from the WSW (250 degrees) at 17 MPH (15 knots; 7.7 m/s) gusting to 25 MPH (22 knots; 11.3 m/s)
Visibility: 6 sm ( 10 km)
Ceiling:700 feet AGL
Clouds: overcast cloud deck at 700 feet AGL
Weather:-SHRA BR (light rain showers, mist)
Text:FM191800 25012G22KT P6SM OVC015
Forecast period:1800 UTC 19 November 2018 to 0000 UTC 20 November 2018
Forecast type:FROM: standard forecast or significant change
Winds:from the WSW (250 degrees) at 14 MPH (12 knots; 6.2 m/s) gusting to 25 MPH (22 knots; 11.3 m/s)
Visibility:6 or more sm (10+ km)
Ceiling:1500 feet AGL
Clouds: overcast cloud deck at 1500 feet AGL